^^
Station Historical Data
Daily Summary for April 5, 2019 Units:  Metric    English   Both
« Previous Day
Next Day »
Daily Weekly Monthly Yearly Custom
  High: Low: Average:
Temperature: 11.8 °C 2.6 °C 6.2 °C
Dew Point: 6.9 °C 1.8 °C 3.9 °C
Humidity: 96% 67% 86%
Wind Speed: 38.6km/h 0km/h 12.9km/h
Wind Gust: 43.5km/h - -
Wind- - East
Pressure: 1011.4 hPa 1008.7 hPa -
Precipitation: 0 mm    
Historical Graphs
 
 
Tabular Data for April 5, 2019
Time Temperature Dew Point Pressure Wind Wind Speed Wind Gust Humidity Rainfall Rate (Hourly) solar Conditions
00:04 5 °C 3.8 °C 1009.7 hPa East 4.8 km/h 9.7 km/h 92% 0 mm 0.00 W/m2
00:09 5.1 °C 3.9 °C 1009.7 hPa ESE 6.4 km/h 9.7 km/h 92% 0 mm 0.00 W/m2
00:14 5.1 °C 3.7 °C 1009.4 hPa SE 6.4 km/h 9.7 km/h 91% 0 mm 0.00 W/m2
00:19 5.1 °C 3.7 °C 1009.4 hPa SE 6.4 km/h 9.7 km/h 91% 0 mm 0.00 W/m2
00:24 5.2 °C 4 °C 1009.4 hPa ESE 4.8 km/h 11.3 km/h 92% 0 mm 0.00 W/m2
00:29 5.2 °C 3.8 °C 1009.7 hPa SE 8 km/h 11.3 km/h 91% 0 mm 0.00 W/m2
00:34 5.1 °C 3.8 °C 1009.7 hPa SE 9.7 km/h 11.3 km/h 91% 0 mm 0.00 W/m2
00:39 5.2 °C 3.8 °C 1009.7 hPa SE 4.8 km/h 11.3 km/h 91% 0 mm 0.00 W/m2
00:44 5.1 °C 3.7 °C 1009.7 hPa SE 6.4 km/h 11.3 km/h 91% 0 mm 0.00 W/m2
00:49 5 °C 3.7 °C 1009.7 hPa SSE 6.4 km/h 11.3 km/h 91% 0 mm 0.00 W/m2
00:54 4.9 °C 3.6 °C 1009.7 hPa SE 4.8 km/h 9.7 km/h 91% 0 mm 0.00 W/m2
00:59 5 °C 3.7 °C 1009.7 hPa SE 8 km/h 9.7 km/h 91% 0 mm 0.00 W/m2
01:04 5 °C 3.7 °C 1009.7 hPa SE 6.4 km/h 9.7 km/h 91% 0 mm 0.00 W/m2
01:09 4.9 °C 3.6 °C 1009.7 hPa SSE 8 km/h 9.7 km/h 91% 0 mm 0.00 W/m2
01:14 4.8 °C 3.5 °C 1009.7 hPa SSE 8 km/h 11.3 km/h 91% 0 mm 0.00 W/m2
01:19 4.8 °C 3.5 °C 1009.7 hPa SSE 6.4 km/h 11.3 km/h 91% 0 mm 0.00 W/m2
01:24 4.7 °C 3.4 °C 1009.7 hPa SE 8 km/h 11.3 km/h 91% 0 mm 0.00 W/m2
01:29 4.4 °C 3.1 °C 1009.7 hPa SE 8 km/h 12.9 km/h 91% 0 mm 0.00 W/m2
01:34 4.3 °C 2.9 °C 1009.7 hPa SE 9.7 km/h 12.9 km/h 91% 0 mm 0.00 W/m2
01:39 4.1 °C 2.8 °C 1009.7 hPa SE 8 km/h 11.3 km/h 91% 0 mm 0.00 W/m2
01:44 4 °C 2.8 °C 1009.7 hPa SE 8 km/h 11.3 km/h 92% 0 mm 0.00 W/m2
01:49 3.9 °C 2.8 °C 1009.4 hPa SE 9.7 km/h 11.3 km/h 92% 0 mm 0.00 W/m2
01:54 3.9 °C 2.9 °C 1009.4 hPa ESE 11.3 km/h 11.3 km/h 93% 0 mm 0.00 W/m2
01:59 4 °C 2.9 °C 1009.4 hPa ESE 8 km/h 11.3 km/h 93% 0 mm 0.00 W/m2
02:04 3.9 °C 2.7 °C 1009.4 hPa ESE 8 km/h 11.3 km/h 92% 0 mm 0.00 W/m2
02:09 3.8 °C 2.7 °C 1009.4 hPa ESE 8 km/h 8 km/h 93% 0 mm 0.00 W/m2
02:14 3.7 °C 2.7 °C 1009.4 hPa ESE 6.4 km/h 9.7 km/h 93% 0 mm 0.00 W/m2
02:19 3.7 °C 2.7 °C 1009.7 hPa East 4.8 km/h 9.7 km/h 93% 0 mm 0.00 W/m2
02:24 3.8 °C 2.9 °C 1009.4 hPa ESE 6.4 km/h 9.7 km/h 94% 0 mm 0.00 W/m2
02:29 3.9 °C 2.8 °C 1009.4 hPa ESE 9.7 km/h 9.7 km/h 93% 0 mm 0.00 W/m2
02:34 4 °C 3.1 °C 1009.4 hPa SE 8 km/h 11.3 km/h 94% 0 mm 0.00 W/m2
02:39 4.1 °C 3.2 °C 1009.4 hPa SE 8 km/h 11.3 km/h 94% 0 mm 0.00 W/m2
02:44 4.1 °C 3.2 °C 1009.7 hPa ENE 3.2 km/h 9.7 km/h 94% 0 mm 0.00 W/m2
02:49 3.7 °C 2.7 °C 1009.7 hPa ENE 4.8 km/h 8 km/h 93% 0 mm 0.00 W/m2
02:54 3.5 °C 2.5 °C 1009.4 hPa East 3.2 km/h 8 km/h 93% 0 mm 0.00 W/m2
02:59 3.3 °C 2.3 °C 1009.4 hPa East 4.8 km/h 8 km/h 93% 0 mm 0.00 W/m2
03:04 3.2 °C 2.2 °C 1009.4 hPa East 4.8 km/h 4.8 km/h 93% 0 mm 0.00 W/m2
03:09 3.3 °C 2.4 °C 1009.4 hPa East 4.8 km/h 4.8 km/h 94% 0 mm 0.00 W/m2
03:14 3.4 °C 2.6 °C 1009.4 hPa East 4.8 km/h 4.8 km/h 94% 0 mm 0.00 W/m2
03:19 3.4 °C 2.6 °C 1009.4 hPa ESE 8 km/h 11.3 km/h 94% 0 mm 0.00 W/m2
03:24 3.6 °C 2.7 °C 1009.4 hPa East 8 km/h 11.3 km/h 94% 0 mm 0.00 W/m2
03:29 3.5 °C 2.6 °C 1009 hPa East 8 km/h 11.3 km/h 94% 0 mm 0.00 W/m2
03:34 3.5 °C 2.6 °C 1009 hPa East 8 km/h 11.3 km/h 94% 0 mm 0.00 W/m2
03:39 3.4 °C 2.5 °C 1009 hPa ESE 11.3 km/h 12.9 km/h 94% 0 mm 0.00 W/m2
03:44 3.3 °C 2.4 °C 1009 hPa ESE 6.4 km/h 12.9 km/h 94% 0 mm 0.00 W/m2
03:49 3.3 °C 2.4 °C 1009 hPa East 11.3 km/h 12.9 km/h 94% 0 mm 0.00 W/m2
03:54 3.3 °C 2.4 °C 1009 hPa ESE 6.4 km/h 11.3 km/h 94% 0 mm 0.00 W/m2
03:59 3.3 °C 2.4 °C 1009 hPa East 11.3 km/h 11.3 km/h 94% 0 mm 0.00 W/m2
04:04 3.3 °C 2.4 °C 1009 hPa ESE 11.3 km/h 11.3 km/h 94% 0 mm 0.00 W/m2
04:09 3.4 °C 2.5 °C 1009 hPa ESE 8 km/h 12.9 km/h 94% 0 mm 0.00 W/m2
04:14 3.4 °C 2.6 °C 1009 hPa ESE 8 km/h 12.9 km/h 94% 0 mm 0.00 W/m2
04:19 3.5 °C 2.8 °C 1009 hPa ESE 8 km/h 11.3 km/h 95% 0 mm 0.00 W/m2
04:24 3.5 °C 2.8 °C 1009 hPa East 8 km/h 11.3 km/h 95% 0 mm 0.00 W/m2
04:29 3.3 °C 2.4 °C 1009 hPa ESE 11.3 km/h 11.3 km/h 94% 0 mm 0.00 W/m2
04:34 3.3 °C 2.4 °C 1009 hPa East 9.7 km/h 12.9 km/h 94% 0 mm 0.00 W/m2
04:39 3.4 °C 2.7 °C 1009 hPa ESE 8 km/h 12.9 km/h 95% 0 mm 0.00 W/m2
04:44 3.4 °C 2.7 °C 1009 hPa ESE 4.8 km/h 12.9 km/h 95% 0 mm 0.00 W/m2
04:49 3.4 °C 2.7 °C 1009.4 hPa SE 3.2 km/h 9.7 km/h 95% 0 mm 0.00 W/m2
04:54 3.4 °C 2.7 °C 1009.4 hPa SSE 3.2 km/h 8 km/h 95% 0 mm 0.00 W/m2
04:59 3.3 °C 2.6 °C 1009 hPa SE 4.8 km/h 6.4 km/h 95% 0 mm 0.00 W/m2
05:04 3.3 °C 2.6 °C 1009 hPa ESE 1.6 km/h 6.4 km/h 95% 0 mm 0.00 W/m2
05:09 3.4 °C 2.7 °C 1009 hPa ENE 4.8 km/h 8 km/h 95% 0 mm 0.00 W/m2
05:14 3.4 °C 2.7 °C 1009 hPa ENE 8 km/h 8 km/h 95% 0 mm 0.00 W/m2
05:19 3.4 °C 2.7 °C 1009 hPa ENE 8 km/h 11.3 km/h 95% 0 mm 0.00 W/m2
05:24 3.4 °C 2.7 °C 1009 hPa ENE 11.3 km/h 12.9 km/h 95% 0 mm 0.00 W/m2
05:29 3.3 °C 2.6 °C 1009 hPa ENE 8 km/h 12.9 km/h 95% 0 mm 0.00 W/m2
05:34 3.2 °C 2.4 °C 1008.7 hPa East 11.3 km/h 12.9 km/h 95% 0 mm 0.00 W/m2
05:39 3.2 °C 2.5 °C 1008.7 hPa East 9.7 km/h 12.9 km/h 95% 0 mm 0.00 W/m2
05:44 3.3 °C 2.6 °C 1008.7 hPa East 11.3 km/h 12.9 km/h 95% 0 mm 0.00 W/m2
05:49 3.3 °C 2.6 °C 1008.7 hPa ESE 11.3 km/h 12.9 km/h 95% 0 mm 0.00 W/m2
05:54 3.3 °C 2.6 °C 1008.7 hPa SE 14.5 km/h 14.5 km/h 95% 0 mm 0.00 W/m2
05:59 3.2 °C 2.4 °C 1008.7 hPa ESE 6.4 km/h 14.5 km/h 95% 0 mm 0.00 W/m2
06:04 3.1 °C 2.4 °C 1009 hPa SE 6.4 km/h 14.5 km/h 95% 0 mm 0.00 W/m2
06:09 3.1 °C 2.3 °C 1009 hPa SE 8 km/h 9.7 km/h 95% 0 mm 0.00 W/m2
06:14 3.2 °C 2.4 °C 1009 hPa SE 4.8 km/h 9.7 km/h 95% 0 mm 0.00 W/m2
06:19 3.2 °C 2.4 °C 1009 hPa SE 3.2 km/h 9.7 km/h 95% 0 mm 0.00 W/m2
06:24 3.2 °C 2.4 °C 1009 hPa ESE 4.8 km/h 8 km/h 95% 0 mm 0.00 W/m2
06:29 3.2 °C 2.5 °C 1009 hPa SE 6.4 km/h 8 km/h 95% 0 mm 0.00 W/m2
06:34 3.2 °C 2.5 °C 1009 hPa ESE 8 km/h 8 km/h 95% 0 mm 0.00 W/m2
06:39 3.3 °C 2.6 °C 1008.7 hPa ESE 8 km/h 11.3 km/h 95% 0 mm 0.00 W/m2
06:44 3.3 °C 2.6 °C 1008.7 hPa ESE 8 km/h 11.3 km/h 95% 0 mm 0.00 W/m2
06:49 3.3 °C 2.6 °C 1008.7 hPa SE 11.3 km/h 14.5 km/h 95% 0 mm 0.00 W/m2
06:54 3.2 °C 2.5 °C 1009 hPa NE 1.6 km/h 14.5 km/h 95% 0 mm 0.00 W/m2
06:59 3.2 °C 2.5 °C 1008.7 hPa NE 1.6 km/h 14.5 km/h 95% 0 mm 0.00 W/m2
07:04 3.2 °C 2.5 °C 1008.7 hPa NE 1.6 km/h 14.5 km/h 95% 0 mm 0.00 W/m2
07:09 3.1 °C 2.4 °C 1008.7 hPa East 12.9 km/h 12.9 km/h 95% 0 mm 0.00 W/m2
07:14 3 °C 2.3 °C 1008.7 hPa ESE 11.3 km/h 14.5 km/h 95% 0 mm 0.00 W/m2
07:19 3.1 °C 2.3 °C 1008.7 hPa East 8 km/h 14.5 km/h 95% 0 mm 0.00 W/m2
07:24 3.2 °C 2.4 °C 1008.7 hPa East 8 km/h 12.9 km/h 95% 0 mm 0.00 W/m2
07:29 3.2 °C 2.4 °C 1008.7 hPa East 8 km/h 11.3 km/h 95% 0 mm 5.00 W/m2
07:34 3.1 °C 2.4 °C 1009 hPa ESE 11.3 km/h 11.3 km/h 95% 0 mm 7.00 W/m2
07:39 3.1 °C 2.4 °C 1008.7 hPa ESE 6.4 km/h 11.3 km/h 95% 0 mm 12.00 W/m2
07:44 3.1 °C 2.4 °C 1009 hPa SE 1.6 km/h 12.9 km/h 95% 0 mm 18.00 W/m2
07:49 3.1 °C 2.4 °C 1009 hPa East 4.8 km/h 12.9 km/h 95% 0 mm 23.00 W/m2
07:54 3.1 °C 2.4 °C 1009 hPa NE 3.2 km/h 9.7 km/h 95% 0 mm 26.00 W/m2
07:59 3.1 °C 2.3 °C 1009 hPa ENE 6.4 km/h 9.7 km/h 95% 0 mm 35.00 W/m2
08:04 3.1 °C 2.4 °C 1009 hPa ENE 4.8 km/h 6.4 km/h 95% 0 mm 44.00 W/m2
08:09 3.2 °C 2.4 °C 1009.4 hPa NE 6.4 km/h 8 km/h 95% 0 mm 53.00 W/m2
08:14 3.2 °C 2.5 °C 1009 hPa NE 8 km/h 9.7 km/h 95% 0 mm 63.00 W/m2
08:19 3.3 °C 2.6 °C 1009 hPa NE 6.4 km/h 9.7 km/h 95% 0 mm 67.00 W/m2
08:24 3.6 °C 3 °C 1009 hPa ENE 4.8 km/h 9.7 km/h 96% 0 mm 114.00 W/m2
08:29 3.7 °C 3.1 °C 1009.4 hPa ENE 8 km/h 11.3 km/h 96% 0 mm 54.00 W/m2
08:34 3.7 °C 3 °C 1009.4 hPa ENE 6.4 km/h 11.3 km/h 95% 0 mm 77.00 W/m2
08:39 3.9 °C 3.3 °C 1009.4 hPa ENE 4.8 km/h 11.3 km/h 96% 0 mm 160.00 W/m2
08:44 4.2 °C 3.6 °C 1009.4 hPa ENE 3.2 km/h 8 km/h 96% 0 mm 160.00 W/m2
08:49 4.4 °C 3.9 °C 1009.4 hPa ENE 6.4 km/h 11.3 km/h 96% 0 mm 207.00 W/m2
08:54 4.8 °C 4.2 °C 1009.4 hPa ENE 3.2 km/h 11.3 km/h 96% 0 mm 213.00 W/m2
08:59 5.2 °C 4.6 °C 1009.4 hPa ENE 1.6 km/h 6.4 km/h 96% 0 mm 121.00 W/m2
09:04 5.3 °C 4.6 °C 1009.4 hPa ENE 4.8 km/h 6.4 km/h 95% 0 mm 121.00 W/m2
09:09 5.4 °C 4.7 °C 1009.7 hPa ENE 4.8 km/h 8 km/h 95% 0 mm 160.00 W/m2
09:14 5.7 °C 4.9 °C 1009.7 hPa NE 4.8 km/h 8 km/h 95% 0 mm 190.00 W/m2
09:19 6.2 °C 5.4 °C 1009.7 hPa NE 6.4 km/h 8 km/h 95% 0 mm 306.00 W/m2
09:24 6.6 °C 5.8 °C 1009.4 hPa NE 8 km/h 12.9 km/h 95% 0 mm 271.00 W/m2
09:29 6.7 °C 5.8 °C 1009.4 hPa NE 11.3 km/h 12.9 km/h 94% 0 mm 165.00 W/m2
09:34 6.8 °C 5.7 °C 1009.7 hPa NNE 6.4 km/h 11.3 km/h 93% 0 mm 232.00 W/m2
09:39 7.2 °C 6.2 °C 1009.7 hPa Calm   11.3 km/h 93% 0 mm 320.00 W/m2
09:44 7.6 °C 6.3 °C 1009.7 hPa NE 1.6 km/h 8 km/h 92% 0 mm 306.00 W/m2
09:49 8 °C 6.6 °C 1009.7 hPa Calm   4.8 km/h 91% 0 mm 332.00 W/m2
09:54 8.4 °C 6.7 °C 1009.7 hPa South 3.2 km/h 4.8 km/h 89% 0 mm 301.00 W/m2
09:59 8.6 °C 6.6 °C 1009.7 hPa NE 3.2 km/h 9.7 km/h 87% 0 mm 299.00 W/m2
10:04 8.8 °C 6.6 °C 1009.7 hPa Calm   9.7 km/h 86% 0 mm 357.00 W/m2
10:09 9.1 °C 6.9 °C 1009.7 hPa NE 8 km/h 11.3 km/h 86% 0 mm 322.00 W/m2
10:14 9.2 °C 6.4 °C 1009.7 hPa ENE 16.1 km/h 17.7 km/h 83% 0 mm 276.00 W/m2
10:19 9.1 °C 6.3 °C 1009.7 hPa ENE 3.2 km/h 17.7 km/h 83% 0 mm 306.00 W/m2
10:24 9.3 °C 6.7 °C 1009.7 hPa ENE 6.4 km/h 16.1 km/h 84% 0 mm 318.00 W/m2
10:29 9.6 °C 6.6 °C 1010 hPa NE 8 km/h 12.9 km/h 82% 0 mm 376.00 W/m2
10:34 9.8 °C 6.7 °C 1010 hPa ESE 4.8 km/h 12.9 km/h 81% 0 mm 408.00 W/m2
10:39 9.8 °C 6.3 °C 1010 hPa East 11.3 km/h 14.5 km/h 79% 0 mm 439.00 W/m2
10:44 9.7 °C 6.3 °C 1010 hPa ENE 4.8 km/h 14.5 km/h 79% 0 mm 420.00 W/m2
10:49 9.9 °C 6.2 °C 1010.4 hPa ENE 12.9 km/h 14.5 km/h 78% 0 mm 371.00 W/m2
10:54 9.7 °C 5.9 °C 1010 hPa ENE 12.9 km/h 16.1 km/h 77% 0 mm 292.00 W/m2
10:59 9.6 °C 5.9 °C 1010.4 hPa East 11.3 km/h 16.1 km/h 78% 0 mm 274.00 W/m2
11:04 9.4 °C 5.7 °C 1010.4 hPa East 3.2 km/h 12.9 km/h 78% 0 mm 292.00 W/m2
11:09 9.3 °C 5.6 °C 1010.4 hPa East 11.3 km/h 14.5 km/h 78% 0 mm 290.00 W/m2
11:14 9.2 °C 5.8 °C 1010.4 hPa East 9.7 km/h 14.5 km/h 79% 0 mm 338.00 W/m2
11:19 9.3 °C 5.9 °C 1010.4 hPa ENE 8 km/h 16.1 km/h 79% 0 mm 378.00 W/m2
11:24 9.5 °C 6.1 °C 1010 hPa NE 12.9 km/h 16.1 km/h 79% 0 mm 443.00 W/m2
11:29 9.8 °C 6.1 °C 1010 hPa NE 12.9 km/h 17.7 km/h 78% 0 mm 408.00 W/m2
11:34 9.8 °C 6.2 °C 1010 hPa NE 12.9 km/h 17.7 km/h 78% 0 mm 439.00 W/m2
11:39 9.9 °C 6.1 °C 1010 hPa ENE 8 km/h 19.3 km/h 77% 0 mm 366.00 W/m2
11:44 10.1 °C 6.3 °C 1010 hPa NE 11.3 km/h 19.3 km/h 77% 0 mm 408.00 W/m2
11:49 10.3 °C 6.5 °C 1010 hPa ENE 11.3 km/h 16.1 km/h 77% 0 mm 417.00 W/m2
11:54 10.4 °C 6.4 °C 1010 hPa ENE 17.7 km/h 20.9 km/h 76% 0 mm 420.00 W/m2
11:59 10.6 °C 6.6 °C 1010 hPa NE 11.3 km/h 20.9 km/h 76% 0 mm 441.00 W/m2
12:04 10.8 °C 6.5 °C 1010 hPa ENE 17.7 km/h 19.3 km/h 75% 0 mm 452.00 W/m2
12:09 11 °C 6.7 °C 1010 hPa North 8 km/h 19.3 km/h 75% 0 mm 446.00 W/m2
12:14 11.2 °C 6.3 °C 1010 hPa NE 14.5 km/h 22.5 km/h 72% 0 mm 462.00 W/m2
12:19 11.2 °C 6.3 °C 1010.4 hPa NE 11.3 km/h 22.5 km/h 72% 0 mm 471.00 W/m2
12:24 11.3 °C 6 °C 1010.4 hPa NE 11.3 km/h 22.5 km/h 70% 0 mm 506.00 W/m2
12:29 11.2 °C 5.9 °C 1010.4 hPa ENE 12.9 km/h 20.9 km/h 70% 0 mm 446.00 W/m2
12:34 11.1 °C 5.8 °C 1010.4 hPa East 20.9 km/h 20.9 km/h 70% 0 mm 369.00 W/m2
12:39 11 °C 5.7 °C 1010.4 hPa ENE 12.9 km/h 22.5 km/h 70% 0 mm 374.00 W/m2
12:44 11.2 °C 5.7 °C 1010.4 hPa ENE 12.9 km/h 22.5 km/h 69% 0 mm 411.00 W/m2
12:49 11.1 °C 5.6 °C 1010.4 hPa NE 19.3 km/h 22.5 km/h 69% 0 mm 461.00 W/m2
12:54 11.4 °C 5.7 °C 1010.4 hPa ENE 17.7 km/h 25.7 km/h 68% 0 mm 654.00 W/m2
12:59 11.6 °C 5.8 °C 1010.4 hPa NE 16.1 km/h 25.7 km/h 68% 0 mm 638.00 W/m2
13:04 11.8 °C 6.1 °C 1010 hPa NE 16.1 km/h 24.1 km/h 68% 0 mm 584.00 W/m2
13:09 11.8 °C 5.9 °C 1010 hPa ENE 16.1 km/h 25.7 km/h 67% 0 mm 515.00 W/m2
13:14 11.6 °C 5.7 °C 1010 hPa ENE 14.5 km/h 25.7 km/h 67% 0 mm 489.00 W/m2
13:19 11.4 °C 5.7 °C 1010 hPa NE 14.5 km/h 22.5 km/h 68% 0 mm 566.00 W/m2
13:24 11.5 °C 5.8 °C 1009.7 hPa NE 14.5 km/h 24.1 km/h 68% 0 mm 584.00 W/m2
13:29 11.4 °C 5.9 °C 1010 hPa NNE 17.7 km/h 24.1 km/h 69% 0 mm 640.00 W/m2
13:34 11.6 °C 5.6 °C 1010 hPa NE 20.9 km/h 24.1 km/h 67% 0 mm 550.00 W/m2
13:39 11.3 °C 5.4 °C 1009.7 hPa ENE 12.9 km/h 24.1 km/h 67% 0 mm 515.00 W/m2
13:44 11.2 °C 5.5 °C 1009.7 hPa NE 14.5 km/h 24.1 km/h 68% 0 mm 513.00 W/m2
13:49 11.2 °C 5.6 °C 1009.7 hPa ENE 17.7 km/h 24.1 km/h 68% 0 mm 524.00 W/m2
13:54 11.3 °C 5.8 °C 1009.7 hPa ENE 17.7 km/h 22.5 km/h 69% 0 mm 617.00 W/m2
13:59 11.4 °C 5.9 °C 1010 hPa NE 16.1 km/h 24.1 km/h 69% 0 mm 422.00 W/m2
14:04 11.3 °C 5.8 °C 1009.7 hPa NE 16.1 km/h 24.1 km/h 69% 0 mm 478.00 W/m2
14:09 11.3 °C 5.6 °C 1010 hPa NE 17.7 km/h 22.5 km/h 68% 0 mm 364.00 W/m2
14:14 11.1 °C 5.2 °C 1010 hPa ENE 14.5 km/h 22.5 km/h 67% 0 mm 422.00 W/m2
14:19 10.9 °C 5.2 °C 1010 hPa East 9.7 km/h 22.5 km/h 68% 0 mm 299.00 W/m2
14:24 10.8 °C 5.1 °C 1009.7 hPa NE 14.5 km/h 22.5 km/h 68% 0 mm 281.00 W/m2
14:29 10.8 °C 5.3 °C 1010 hPa NNE 9.7 km/h 22.5 km/h 69% 0 mm 355.00 W/m2
14:34 11 °C 5.5 °C 1010 hPa NNE 12.9 km/h 22.5 km/h 69% 0 mm 415.00 W/m2
14:39 11.1 °C 5.4 °C 1009.7 hPa NE 22.5 km/h 25.7 km/h 68% 0 mm 385.00 W/m2
14:44 10.9 °C 5.2 °C 1009.7 hPa NE 19.3 km/h 25.7 km/h 68% 0 mm 308.00 W/m2
14:49 10.8 °C 5.1 °C 1009.7 hPa ENE 12.9 km/h 25.7 km/h 68% 0 mm 257.00 W/m2
14:54 10.7 °C 5 °C 1009.7 hPa ENE 20.9 km/h 25.7 km/h 68% 0 mm 230.00 W/m2
14:59 10.6 °C 4.9 °C 1009.7 hPa NE 14.5 km/h 24.1 km/h 68% 0 mm 229.00 W/m2
15:04 10.5 °C 5.1 °C 1009.7 hPa NE 16.1 km/h 24.1 km/h 69% 0 mm 193.00 W/m2
15:09 10.4 °C 4.9 °C 1009.7 hPa NE 17.7 km/h 20.9 km/h 69% 0 mm 171.00 W/m2
15:14 10.2 °C 4.8 °C 1009.7 hPa East 9.7 km/h 24.1 km/h 69% 0 mm 176.00 W/m2
15:19 10.1 °C 4.9 °C 1009.7 hPa NE 9.7 km/h 24.1 km/h 70% 0 mm 206.00 W/m2
15:24 9.9 °C 4.7 °C 1009.7 hPa ENE 24.1 km/h 27.4 km/h 70% 0 mm 234.00 W/m2
15:29 9.8 °C 4.8 °C 1009.7 hPa NE 19.3 km/h 27.4 km/h 71% 0 mm 306.00 W/m2
15:34 9.8 °C 4.9 °C 1009.4 hPa NE 17.7 km/h 29 km/h 72% 0 mm 323.00 W/m2
15:39 9.7 °C 4.7 °C 1009.4 hPa ENE 22.5 km/h 29 km/h 71% 0 mm 385.00 W/m2
15:44 9.6 °C 4.6 °C 1009.4 hPa NE 22.5 km/h 27.4 km/h 71% 0 mm 334.00 W/m2
15:49 9.5 °C 4.5 °C 1009.4 hPa ENE 22.5 km/h 27.4 km/h 71% 0 mm 346.00 W/m2
15:54 9.8 °C 4.9 °C 1009.4 hPa East 11.3 km/h 27.4 km/h 72% 0 mm 325.00 W/m2
15:59 9.8 °C 4.8 °C 1009.7 hPa East 20.9 km/h 24.1 km/h 71% 0 mm 297.00 W/m2
16:04 9.7 °C 4.7 °C 1009.7 hPa ENE 17.7 km/h 24.1 km/h 71% 0 mm 285.00 W/m2
16:09 9.7 °C 4.7 °C 1009.7 hPa East 12.9 km/h 24.1 km/h 71% 0 mm 299.00 W/m2
16:14 9.8 °C 4.9 °C 1009.7 hPa NE 12.9 km/h 22.5 km/h 72% 0 mm 274.00 W/m2
16:19 9.7 °C 4.7 °C 1009.4 hPa ENE 19.3 km/h 27.4 km/h 71% 0 mm 265.00 W/m2
16:24 9.5 °C 4.9 °C 1009.4 hPa NE 14.5 km/h 27.4 km/h 73% 0 mm 264.00 W/m2
16:29 9.4 °C 4.8 °C 1009 hPa East 16.1 km/h 29 km/h 73% 0 mm 315.00 W/m2
16:34 9.6 °C 4.9 °C 1009.4 hPa NE 12.9 km/h 32.2 km/h 73% 0 mm 580.00 W/m2
16:39 9.7 °C 4.9 °C 1009.4 hPa NE 22.5 km/h 33.8 km/h 72% 0 mm 359.00 W/m2
16:44 9.7 °C 4.8 °C 1009.7 hPa NE 12.9 km/h 33.8 km/h 72% 0 mm 392.00 W/m2
16:49 9.3 °C 4.7 °C 1009.7 hPa ENE 17.7 km/h 27.4 km/h 73% 0 mm 246.00 W/m2
16:54 9.1 °C 4.7 °C 1010 hPa ENE 12.9 km/h 25.7 km/h 74% 0 mm 229.00 W/m2
16:59 8.9 °C 4.6 °C 1010 hPa East 20.9 km/h 27.4 km/h 74% 0 mm 366.00 W/m2
17:04 8.7 °C 4.3 °C 1010 hPa ESE 16.1 km/h 30.6 km/h 74% 0 mm 292.00 W/m2
17:09 8.5 °C 4.3 °C 1009.7 hPa East 25.7 km/h 30.6 km/h 75% 0 mm 348.00 W/m2
17:14 8.3 °C 4.3 °C 1010 hPa NE 14.5 km/h 33.8 km/h 76% 0 mm 316.00 W/m2
17:19 8.3 °C 4.6 °C 1010 hPa ENE 20.9 km/h 33.8 km/h 77% 0 mm 295.00 W/m2
17:24 8.3 °C 4.3 °C 1009.7 hPa ENE 22.5 km/h 29 km/h 76% 0 mm 278.00 W/m2
17:29 8.2 °C 4.6 °C 1010 hPa ENE 16.1 km/h 27.4 km/h 78% 0 mm 262.00 W/m2
17:34 8.2 °C 4.6 °C 1010 hPa ENE 11.3 km/h 30.6 km/h 78% 0 mm 292.00 W/m2
17:39 8.2 °C 4.6 °C 1009.7 hPa East 20.9 km/h 30.6 km/h 78% 0 mm 202.00 W/m2
17:44 8.2 °C 4.6 °C 1009.7 hPa ENE 22.5 km/h 30.6 km/h 78% 0 mm 183.00 W/m2
17:49 8.2 °C 4.8 °C 1009.7 hPa East 20.9 km/h 30.6 km/h 79% 0 mm 385.00 W/m2
17:54 8.5 °C 4.9 °C 1009.7 hPa East 16.1 km/h 30.6 km/h 78% 0 mm 334.00 W/m2
17:59 8.7 °C 5.1 °C 1010 hPa NE 20.9 km/h 30.6 km/h 78% 0 mm 420.00 W/m2
18:04 9 °C 5.2 °C 1009.7 hPa ENE 12.9 km/h 32.2 km/h 77% 0 mm 381.00 W/m2
18:09 8.8 °C 4.7 °C 1009.7 hPa ENE 25.7 km/h 32.2 km/h 75% 0 mm 142.00 W/m2
18:14 8.6 °C 4.8 °C 1009.7 hPa East 25.7 km/h 30.6 km/h 77% 0 mm 313.00 W/m2
18:19 8.5 °C 4.7 °C 1009.7 hPa ENE 27.4 km/h 30.6 km/h 77% 0 mm 204.00 W/m2
18:24 8.1 °C 4.5 °C 1010 hPa East 22.5 km/h 30.6 km/h 78% 0 mm 137.00 W/m2
18:29 7.9 °C 4.4 °C 1010 hPa ENE 29 km/h 30.6 km/h 79% 0 mm 160.00 W/m2
18:34 7.6 °C 4.4 °C 1010 hPa East 22.5 km/h 32.2 km/h 80% 0 mm 120.00 W/m2
18:39 7.6 °C 4.3 °C 1010.4 hPa East 14.5 km/h 32.2 km/h 80% 0 mm 135.00 W/m2
18:44 7.5 °C 4.4 °C 1010.4 hPa East 17.7 km/h 25.7 km/h 81% 0 mm 95.00 W/m2
18:49 7.3 °C 4.3 °C 1010.4 hPa East 22.5 km/h 30.6 km/h 81% 0 mm 95.00 W/m2
18:54 7.2 °C 4.3 °C 1010.4 hPa East 22.5 km/h 30.6 km/h 82% 0 mm 88.00 W/m2
18:59 7.1 °C 4.2 °C 1010.4 hPa East 24.1 km/h 29 km/h 82% 0 mm 70.00 W/m2
19:04 6.8 °C 4 °C 1010.4 hPa ESE 20.9 km/h 32.2 km/h 82% 0 mm 54.00 W/m2
19:09 6.6 °C 3.9 °C 1010.4 hPa East 27.4 km/h 37 km/h 83% 0 mm 47.00 W/m2
19:14 6.4 °C 3.9 °C 1010.4 hPa ENE 12.9 km/h 37 km/h 84% 0 mm 47.00 W/m2
19:19 6.3 °C 3.8 °C 1010.4 hPa ENE 12.9 km/h 37 km/h 84% 0 mm 40.00 W/m2
19:24 6.2 °C 3.7 °C 1010.4 hPa ENE 12.9 km/h 37 km/h 84% 0 mm 33.00 W/m2
19:29 5.9 °C 3.4 °C 1010.4 hPa ENE 25.7 km/h 30.6 km/h 84% 0 mm 33.00 W/m2
19:34 5.7 °C 3.4 °C 1010.4 hPa East 27.4 km/h 30.6 km/h 85% 0 mm 28.00 W/m2
19:39 5.6 °C 3.4 °C 1010.4 hPa East 27.4 km/h 29 km/h 86% 0 mm 23.00 W/m2
19:44 5.4 °C 3.2 °C 1010.4 hPa East 17.7 km/h 37 km/h 86% 0 mm 21.00 W/m2
19:49 5.2 °C 3.2 °C 1010.7 hPa ENE 19.3 km/h 37 km/h 87% 0 mm 18.00 W/m2
19:54 5.2 °C 3.2 °C 1010.4 hPa East 27.4 km/h 32.2 km/h 87% 0 mm 12.00 W/m2
19:59 5.1 °C 3.2 °C 1010.4 hPa NE 22.5 km/h 30.6 km/h 88% 0 mm 11.00 W/m2
20:04 4.9 °C 3.1 °C 1010.4 hPa ENE 19.3 km/h 30.6 km/h 88% 0 mm 7.00 W/m2
20:09 4.8 °C 3 °C 1010.4 hPa NE 9.7 km/h 30.6 km/h 88% 0 mm 5.00 W/m2
20:14 4.7 °C 3.1 °C 1010.4 hPa ENE 19.3 km/h 30.6 km/h 89% 0 mm 0.00 W/m2
20:19 4.6 °C 2.9 °C 1010.4 hPa ENE 19.3 km/h 30.6 km/h 89% 0 mm 0.00 W/m2
20:24 4.5 °C 2.8 °C 1010.4 hPa ENE 11.3 km/h 27.4 km/h 89% 0 mm 0.00 W/m2
20:29 4.4 °C 2.8 °C 1010.4 hPa ENE 14.5 km/h 27.4 km/h 89% 0 mm 0.00 W/m2
20:34 4.4 °C 2.9 °C 1010.4 hPa East 22.5 km/h 32.2 km/h 90% 0 mm 0.00 W/m2
20:39 4.3 °C 2.8 °C 1010.4 hPa East 14.5 km/h 32.2 km/h 90% 0 mm 0.00 W/m2
20:44 4.2 °C 2.7 °C 1010.4 hPa ENE 17.7 km/h 29 km/h 90% 0 mm 0.00 W/m2
20:49 4.1 °C 2.8 °C 1010.4 hPa NE 16.1 km/h 33.8 km/h 91% 0 mm 0.00 W/m2
20:54 4.1 °C 2.7 °C 1010.4 hPa ENE 16.1 km/h 35.4 km/h 91% 0 mm 0.00 W/m2
20:59 4 °C 2.7 °C 1010.7 hPa ENE 17.7 km/h 35.4 km/h 91% 0 mm 0.00 W/m2
21:04 3.9 °C 2.6 °C 1010.7 hPa East 17.7 km/h 30.6 km/h 91% 0 mm 0.00 W/m2
21:09 3.9 °C 2.8 °C 1011.1 hPa East 14.5 km/h 30.6 km/h 92% 0 mm 0.00 W/m2
21:14 3.8 °C 2.7 °C 1011.1 hPa ENE 16.1 km/h 24.1 km/h 92% 0 mm 0.00 W/m2
21:19 3.8 °C 2.6 °C 1011.1 hPa NE 16.1 km/h 25.7 km/h 92% 0 mm 0.00 W/m2
21:24 3.7 °C 2.6 °C 1011.1 hPa NE 22.5 km/h 25.7 km/h 92% 0 mm 0.00 W/m2
21:29 3.7 °C 2.6 °C 1011.1 hPa ENE 14.5 km/h 30.6 km/h 92% 0 mm 0.00 W/m2
21:34 3.7 °C 2.7 °C 1011.1 hPa East 25.7 km/h 32.2 km/h 93% 0 mm 0.00 W/m2
21:39 3.6 °C 2.6 °C 1011.1 hPa ENE 17.7 km/h 37 km/h 93% 0 mm 0.00 W/m2
21:44 3.6 °C 2.6 °C 1011.1 hPa ENE 20.9 km/h 37 km/h 93% 0 mm 0.00 W/m2
21:49 3.5 °C 2.5 °C 1011.1 hPa East 20.9 km/h 29 km/h 93% 0 mm 0.00 W/m2
21:54 3.4 °C 2.4 °C 1011.1 hPa ENE 20.9 km/h 29 km/h 93% 0 mm 0.00 W/m2
21:59 3.4 °C 2.6 °C 1011.1 hPa ENE 24.1 km/h 35.4 km/h 94% 0 mm 0.00 W/m2
22:04 3.4 °C 2.5 °C 1011.1 hPa ENE 25.7 km/h 35.4 km/h 94% 0 mm 0.00 W/m2
22:09 3.3 °C 2.4 °C 1011.1 hPa East 27.4 km/h 38.6 km/h 94% 0 mm 0.00 W/m2
22:14 3.3 °C 2.4 °C 1011.1 hPa East 17.7 km/h 38.6 km/h 94% 0 mm 0.00 W/m2
22:19 3.2 °C 2.3 °C 1010.7 hPa ENE 14.5 km/h 37 km/h 94% 0 mm 0.00 W/m2
22:24 3.2 °C 2.3 °C 1011.1 hPa East 30.6 km/h 37 km/h 94% 0 mm 0.00 W/m2
22:29 3.2 °C 2.3 °C 1011.1 hPa East 20.9 km/h 37 km/h 94% 0 mm 0.00 W/m2
22:34 3.2 °C 2.4 °C 1011.1 hPa East 17.7 km/h 32.2 km/h 95% 0 mm 0.00 W/m2
22:39 3.1 °C 2.4 °C 1011.1 hPa ENE 17.7 km/h 27.4 km/h 95% 0 mm 0.00 W/m2
22:44 3.1 °C 2.2 °C 1011.1 hPa ENE 19.3 km/h 29 km/h 94% 0 mm 0.00 W/m2
22:49 3 °C 2.3 °C 1011.1 hPa East 30.6 km/h 35.4 km/h 95% 0 mm 0.00 W/m2
22:54 2.9 °C 2.2 °C 1011.4 hPa East 38.6 km/h 38.6 km/h 95% 0 mm 0.00 W/m2
22:59 2.8 °C 2.1 °C 1011.1 hPa ENE 33.8 km/h 38.6 km/h 95% 0 mm 0.00 W/m2
23:04 2.8 °C 2.1 °C 1011.1 hPa ENE 19.3 km/h 38.6 km/h 95% 0 mm 0.00 W/m2
23:09 2.8 °C 2.1 °C 1011.1 hPa ENE 22.5 km/h 38.6 km/h 95% 0 mm 0.00 W/m2
23:14 2.8 °C 2.1 °C 1011.1 hPa East 22.5 km/h 29 km/h 95% 0 mm 0.00 W/m2
23:19 2.7 °C 2 °C 1011.1 hPa ENE 19.3 km/h 30.6 km/h 95% 0 mm 0.00 W/m2
23:24 2.7 °C 2 °C 1011.1 hPa East 14.5 km/h 30.6 km/h 95% 0 mm 0.00 W/m2
23:29 2.7 °C 2 °C 1011.1 hPa East 14.5 km/h 30.6 km/h 95% 0 mm 0.00 W/m2
23:34 2.7 °C 1.9 °C 1011.1 hPa East 14.5 km/h 30.6 km/h 95% 0 mm 0.00 W/m2
23:39 2.6 °C 1.9 °C 1011.1 hPa East 20.9 km/h 43.5 km/h 95% 0 mm 0.00 W/m2
23:44 2.6 °C 1.9 °C 1011.1 hPa East 20.9 km/h 43.5 km/h 95% 0 mm 0.00 W/m2
23:49 2.6 °C 1.9 °C 1011.1 hPa ENE 14.5 km/h 32.2 km/h 95% 0 mm 0.00 W/m2
23:54 2.6 °C 1.8 °C 1011.1 hPa East 25.7 km/h 32.2 km/h 95% 0 mm 0.00 W/m2
23:59 2.6 °C 1.9 °C 1011.1 hPa East 17.7 km/h 27.4 km/h 95% 0 mm 0.00 W/m2
Bismarck, North Dakota, USA
Compliments of Weather Underground - 4 mb